sensor_id;sensor_type;location;lat;lon;timestamp;temperature;humidity
15578;DHT22;17667;45.598;5.214;2023-05-02T00:00:43;12.80;99.90
15578;DHT22;17667;45.598;5.214;2023-05-02T00:03:31;12.80;99.90
15578;DHT22;17667;45.598;5.214;2023-05-02T00:06:19;12.70;99.90
15578;DHT22;17667;45.598;5.214;2023-05-02T00:09:09;12.70;99.90
15578;DHT22;17667;45.598;5.214;2023-05-02T00:11:59;12.70;99.90
15578;DHT22;17667;45.598;5.214;2023-05-02T00:14:47;12.70;99.90
15578;DHT22;17667;45.598;5.214;2023-05-02T00:17:35;12.70;99.90
15578;DHT22;17667;45.598;5.214;2023-05-02T00:20:23;12.70;99.90
15578;DHT22;17667;45.598;5.214;2023-05-02T00:23:10;12.70;99.90
15578;DHT22;17667;45.598;5.214;2023-05-02T00:26:00;12.70;99.90
15578;DHT22;17667;45.598;5.214;2023-05-02T00:28:47;12.60;99.90
15578;DHT22;17667;45.598;5.214;2023-05-02T00:31:35;12.60;99.90
15578;DHT22;17667;45.598;5.214;2023-05-02T00:34:23;12.60;99.90
15578;DHT22;17667;45.598;5.214;2023-05-02T00:37:10;12.60;99.90
15578;DHT22;17667;45.598;5.214;2023-05-02T00:39:58;12.60;99.90
15578;DHT22;17667;45.598;5.214;2023-05-02T00:42:47;12.60;99.90
15578;DHT22;17667;45.598;5.214;2023-05-02T00:45:34;12.60;99.90
15578;DHT22;17667;45.598;5.214;2023-05-02T00:48:22;12.60;99.90
15578;DHT22;17667;45.598;5.214;2023-05-02T00:51:11;12.60;99.90
15578;DHT22;17667;45.598;5.214;2023-05-02T00:53:59;12.50;99.90
15578;DHT22;17667;45.598;5.214;2023-05-02T00:56:48;12.60;99.90
15578;DHT22;17667;45.598;5.214;2023-05-02T00:59:37;12.50;99.90
15578;DHT22;17667;45.598;5.214;2023-05-02T01:02:32;12.50;99.90
15578;DHT22;17667;45.598;5.214;2023-05-02T01:05:26;12.50;99.90
15578;DHT22;17667;45.598;5.214;2023-05-02T01:08:22;12.50;99.90
15578;DHT22;17667;45.598;5.214;2023-05-02T01:11:14;12.40;99.90
15578;DHT22;17667;45.598;5.214;2023-05-02T01:14:07;12.40;99.90
15578;DHT22;17667;45.598;5.214;2023-05-02T01:16:58;12.40;99.90
15578;DHT22;17667;45.598;5.214;2023-05-02T01:19:51;12.40;99.90
15578;DHT22;17667;45.598;5.214;2023-05-02T01:22:40;12.40;99.90
15578;DHT22;17667;45.598;5.214;2023-05-02T01:25:32;12.40;99.90
15578;DHT22;17667;45.598;5.214;2023-05-02T01:28:30;12.40;99.90
15578;DHT22;17667;45.598;5.214;2023-05-02T01:31:24;12.40;99.90
15578;DHT22;17667;45.598;5.214;2023-05-02T01:34:13;12.40;99.90
15578;DHT22;17667;45.598;5.214;2023-05-02T01:37:02;12.40;99.90
15578;DHT22;17667;45.598;5.214;2023-05-02T01:39:53;12.30;99.90
15578;DHT22;17667;45.598;5.214;2023-05-02T01:42:42;12.30;99.90
15578;DHT22;17667;45.598;5.214;2023-05-02T01:45:35;12.30;99.90
15578;DHT22;17667;45.598;5.214;2023-05-02T01:48:26;12.20;99.90
15578;DHT22;17667;45.598;5.214;2023-05-02T01:51:17;12.20;99.90
15578;DHT22;17667;45.598;5.214;2023-05-02T01:54:07;12.20;99.90
15578;DHT22;17667;45.598;5.214;2023-05-02T01:56:55;12.20;99.90
15578;DHT22;17667;45.598;5.214;2023-05-02T01:59:46;12.20;99.90
15578;DHT22;17667;45.598;5.214;2023-05-02T02:02:36;12.20;99.90
15578;DHT22;17667;45.598;5.214;2023-05-02T02:05:26;12.10;99.90
15578;DHT22;17667;45.598;5.214;2023-05-02T02:08:14;12.10;99.90
15578;DHT22;17667;45.598;5.214;2023-05-02T02:11:07;12.10;99.90
15578;DHT22;17667;45.598;5.214;2023-05-02T02:14:00;12.10;99.90
15578;DHT22;17667;45.598;5.214;2023-05-02T02:16:55;12.00;99.90
15578;DHT22;17667;45.598;5.214;2023-05-02T02:19:45;12.00;99.90
15578;DHT22;17667;45.598;5.214;2023-05-02T02:22:36;11.90;99.90
15578;DHT22;17667;45.598;5.214;2023-05-02T02:25:25;11.90;99.90
15578;DHT22;17667;45.598;5.214;2023-05-02T02:28:13;11.90;99.90
15578;DHT22;17667;45.598;5.214;2023-05-02T02:31:01;11.90;99.90
15578;DHT22;17667;45.598;5.214;2023-05-02T02:33:48;11.80;99.90
15578;DHT22;17667;45.598;5.214;2023-05-02T02:36:43;11.70;99.90
15578;DHT22;17667;45.598;5.214;2023-05-02T02:39:45;11.70;99.90
15578;DHT22;17667;45.598;5.214;2023-05-02T02:42:38;11.70;99.90
15578;DHT22;17667;45.598;5.214;2023-05-02T02:45:33;11.60;99.90
15578;DHT22;17667;45.598;5.214;2023-05-02T02:48:31;11.60;99.90
15578;DHT22;17667;45.598;5.214;2023-05-02T02:51:27;11.60;99.90
15578;DHT22;17667;45.598;5.214;2023-05-02T02:54:20;11.50;99.90
15578;DHT22;17667;45.598;5.214;2023-05-02T02:57:17;11.50;99.90
15578;DHT22;17667;45.598;5.214;2023-05-02T03:00:12;11.50;99.90
15578;DHT22;17667;45.598;5.214;2023-05-02T03:03:00;11.40;99.90
15578;DHT22;17667;45.598;5.214;2023-05-02T03:05:47;11.40;99.90
15578;DHT22;17667;45.598;5.214;2023-05-02T03:08:38;11.40;99.90
15578;DHT22;17667;45.598;5.214;2023-05-02T03:11:29;11.30;99.90
15578;DHT22;17667;45.598;5.214;2023-05-02T03:14:18;11.30;99.90
15578;DHT22;17667;45.598;5.214;2023-05-02T03:17:06;11.20;99.90
15578;DHT22;17667;45.598;5.214;2023-05-02T03:19:55;11.20;99.90
15578;DHT22;17667;45.598;5.214;2023-05-02T03:22:43;11.20;99.90
15578;DHT22;17667;45.598;5.214;2023-05-02T03:25:31;11.20;99.90
15578;DHT22;17667;45.598;5.214;2023-05-02T03:28:19;11.10;99.90
15578;DHT22;17667;45.598;5.214;2023-05-02T03:31:11;11.10;99.90
15578;DHT22;17667;45.598;5.214;2023-05-02T03:33:58;11.10;99.90
15578;DHT22;17667;45.598;5.214;2023-05-02T03:36:47;11.10;99.90
15578;DHT22;17667;45.598;5.214;2023-05-02T03:39:35;11.10;99.90
15578;DHT22;17667;45.598;5.214;2023-05-02T03:42:23;11.10;99.90
15578;DHT22;17667;45.598;5.214;2023-05-02T03:45:11;11.10;99.90
15578;DHT22;17667;45.598;5.214;2023-05-02T03:48:00;11.00;99.90
15578;DHT22;17667;45.598;5.214;2023-05-02T03:50:50;11.00;99.90
15578;DHT22;17667;45.598;5.214;2023-05-02T03:53:38;11.00;99.90
15578;DHT22;17667;45.598;5.214;2023-05-02T03:56:26;11.00;99.90
15578;DHT22;17667;45.598;5.214;2023-05-02T03:59:26;11.00;99.90
15578;DHT22;17667;45.598;5.214;2023-05-02T04:02:14;11.00;99.90
15578;DHT22;17667;45.598;5.214;2023-05-02T04:05:07;11.00;99.90
15578;DHT22;17667;45.598;5.214;2023-05-02T04:07:56;11.00;99.90
15578;DHT22;17667;45.598;5.214;2023-05-02T04:10:44;10.90;99.90
15578;DHT22;17667;45.598;5.214;2023-05-02T04:13:32;10.90;99.90
15578;DHT22;17667;45.598;5.214;2023-05-02T04:16:20;10.90;99.90
15578;DHT22;17667;45.598;5.214;2023-05-02T04:19:08;10.80;99.90
15578;DHT22;17667;45.598;5.214;2023-05-02T04:22:01;10.80;99.90
15578;DHT22;17667;45.598;5.214;2023-05-02T04:24:52;10.80;99.90
15578;DHT22;17667;45.598;5.214;2023-05-02T04:27:40;10.70;99.90
15578;DHT22;17667;45.598;5.214;2023-05-02T04:30:31;10.70;99.90
15578;DHT22;17667;45.598;5.214;2023-05-02T04:33:24;10.70;99.90
15578;DHT22;17667;45.598;5.214;2023-05-02T04:36:13;10.70;99.90
15578;DHT22;17667;45.598;5.214;2023-05-02T04:39:05;10.70;99.90
15578;DHT22;17667;45.598;5.214;2023-05-02T04:41:56;10.70;99.90
15578;DHT22;17667;45.598;5.214;2023-05-02T04:44:47;10.70;99.90
15578;DHT22;17667;45.598;5.214;2023-05-02T04:47:35;10.70;99.90
15578;DHT22;17667;45.598;5.214;2023-05-02T04:50:25;10.70;99.90
15578;DHT22;17667;45.598;5.214;2023-05-02T04:53:13;10.70;99.90
15578;DHT22;17667;45.598;5.214;2023-05-02T04:56:03;10.80;99.90
15578;DHT22;17667;45.598;5.214;2023-05-02T04:58:53;10.80;99.90
15578;DHT22;17667;45.598;5.214;2023-05-02T05:01:41;10.80;99.90
15578;DHT22;17667;45.598;5.214;2023-05-02T05:04:28;10.80;99.90
15578;DHT22;17667;45.598;5.214;2023-05-02T05:07:16;10.90;99.90
15578;DHT22;17667;45.598;5.214;2023-05-02T05:10:07;10.90;99.90
15578;DHT22;17667;45.598;5.214;2023-05-02T05:13:05;10.90;99.90
15578;DHT22;17667;45.598;5.214;2023-05-02T05:15:53;11.00;99.90
15578;DHT22;17667;45.598;5.214;2023-05-02T05:18:44;11.00;99.90
15578;DHT22;17667;45.598;5.214;2023-05-02T05:21:34;11.10;99.90
15578;DHT22;17667;45.598;5.214;2023-05-02T05:24:22;11.10;99.90
15578;DHT22;17667;45.598;5.214;2023-05-02T05:27:12;11.10;99.90
15578;DHT22;17667;45.598;5.214;2023-05-02T05:30:02;11.20;99.90
15578;DHT22;17667;45.598;5.214;2023-05-02T05:32:49;11.20;99.90
15578;DHT22;17667;45.598;5.214;2023-05-02T05:35:38;11.20;99.90
15578;DHT22;17667;45.598;5.214;2023-05-02T05:38:26;11.20;99.90
15578;DHT22;17667;45.598;5.214;2023-05-02T05:41:13;11.20;99.90
15578;DHT22;17667;45.598;5.214;2023-05-02T05:44:06;11.30;99.90
15578;DHT22;17667;45.598;5.214;2023-05-02T05:46:55;11.30;99.90
15578;DHT22;17667;45.598;5.214;2023-05-02T05:49:44;11.40;99.90
15578;DHT22;17667;45.598;5.214;2023-05-02T05:52:32;11.40;99.90
15578;DHT22;17667;45.598;5.214;2023-05-02T05:55:21;11.50;99.90
15578;DHT22;17667;45.598;5.214;2023-05-02T05:58:09;11.60;99.90
15578;DHT22;17667;45.598;5.214;2023-05-02T06:00:57;11.60;99.90
15578;DHT22;17667;45.598;5.214;2023-05-02T06:03:46;11.70;99.90
15578;DHT22;17667;45.598;5.214;2023-05-02T06:06:35;11.80;99.90
15578;DHT22;17667;45.598;5.214;2023-05-02T06:09:23;11.90;99.90
15578;DHT22;17667;45.598;5.214;2023-05-02T06:12:11;11.90;99.90
15578;DHT22;17667;45.598;5.214;2023-05-02T06:14:59;12.00;99.90
15578;DHT22;17667;45.598;5.214;2023-05-02T06:17:47;12.10;99.90
15578;DHT22;17667;45.598;5.214;2023-05-02T06:20:38;12.20;99.90
15578;DHT22;17667;45.598;5.214;2023-05-02T06:23:25;12.30;99.90
15578;DHT22;17667;45.598;5.214;2023-05-02T06:26:13;12.30;99.90
15578;DHT22;17667;45.598;5.214;2023-05-02T06:29:00;12.40;99.90
15578;DHT22;17667;45.598;5.214;2023-05-02T06:31:48;12.40;99.90
15578;DHT22;17667;45.598;5.214;2023-05-02T06:34:36;12.50;99.90
15578;DHT22;17667;45.598;5.214;2023-05-02T06:37:26;12.60;99.90
15578;DHT22;17667;45.598;5.214;2023-05-02T06:40:13;12.60;99.90
15578;DHT22;17667;45.598;5.214;2023-05-02T06:43:01;12.70;99.90
15578;DHT22;17667;45.598;5.214;2023-05-02T06:45:52;12.80;99.90
15578;DHT22;17667;45.598;5.214;2023-05-02T06:48:40;12.90;99.90
15578;DHT22;17667;45.598;5.214;2023-05-02T06:51:27;12.90;99.90
15578;DHT22;17667;45.598;5.214;2023-05-02T06:54:16;13.10;99.90
15578;DHT22;17667;45.598;5.214;2023-05-02T06:57:04;13.10;99.90
15578;DHT22;17667;45.598;5.214;2023-05-02T06:59:53;13.20;99.90
15578;DHT22;17667;45.598;5.214;2023-05-02T07:02:40;13.30;99.90
15578;DHT22;17667;45.598;5.214;2023-05-02T07:05:28;13.50;99.90
15578;DHT22;17667;45.598;5.214;2023-05-02T07:08:16;13.60;99.90
15578;DHT22;17667;45.598;5.214;2023-05-02T07:11:05;13.70;99.90
15578;DHT22;17667;45.598;5.214;2023-05-02T07:13:52;13.90;99.90
15578;DHT22;17667;45.598;5.214;2023-05-02T07:16:40;14.00;99.90
15578;DHT22;17667;45.598;5.214;2023-05-02T07:19:27;14.20;99.90
15578;DHT22;17667;45.598;5.214;2023-05-02T07:22:15;14.30;99.90
15578;DHT22;17667;45.598;5.214;2023-05-02T07:25:03;14.50;99.90
15578;DHT22;17667;45.598;5.214;2023-05-02T07:27:52;14.60;99.90
15578;DHT22;17667;45.598;5.214;2023-05-02T07:30:40;14.80;99.90
15578;DHT22;17667;45.598;5.214;2023-05-02T07:33:27;15.10;99.90
15578;DHT22;17667;45.598;5.214;2023-05-02T07:36:15;15.30;99.90
15578;DHT22;17667;45.598;5.214;2023-05-02T07:39:03;15.60;99.90
15578;DHT22;17667;45.598;5.214;2023-05-02T07:41:51;15.90;99.90
15578;DHT22;17667;45.598;5.214;2023-05-02T07:44:40;16.10;99.90
15578;DHT22;17667;45.598;5.214;2023-05-02T07:47:28;16.40;99.90
15578;DHT22;17667;45.598;5.214;2023-05-02T07:50:15;16.70;99.90
15578;DHT22;17667;45.598;5.214;2023-05-02T07:53:03;16.90;99.70
15578;DHT22;17667;45.598;5.214;2023-05-02T07:55:51;17.10;97.40
15578;DHT22;17667;45.598;5.214;2023-05-02T07:58:38;17.30;96.60
15578;DHT22;17667;45.598;5.214;2023-05-02T08:01:28;17.60;96.00
15578;DHT22;17667;45.598;5.214;2023-05-02T08:04:15;17.80;95.30
15578;DHT22;17667;45.598;5.214;2023-05-02T08:07:03;18.00;95.20
15578;DHT22;17667;45.598;5.214;2023-05-02T08:09:51;18.30;94.40
15578;DHT22;17667;45.598;5.214;2023-05-02T08:12:38;18.70;95.80
15578;DHT22;17667;45.598;5.214;2023-05-02T08:15:26;19.20;93.20
15578;DHT22;17667;45.598;5.214;2023-05-02T08:18:16;19.80;92.40
15578;DHT22;17667;45.598;5.214;2023-05-02T08:21:04;20.30;91.30
15578;DHT22;17667;45.598;5.214;2023-05-02T08:23:56;20.60;89.50
15578;DHT22;17667;45.598;5.214;2023-05-02T08:26:44;21.10;88.50
15578;DHT22;17667;45.598;5.214;2023-05-02T08:29:32;21.40;86.10
15578;DHT22;17667;45.598;5.214;2023-05-02T08:32:20;21.70;85.00
15578;DHT22;17667;45.598;5.214;2023-05-02T08:35:09;21.80;83.10
15578;DHT22;17667;45.598;5.214;2023-05-02T08:37:56;21.60;79.40
15578;DHT22;17667;45.598;5.214;2023-05-02T08:40:45;21.60;75.40
15578;DHT22;17667;45.598;5.214;2023-05-02T08:43:33;21.40;75.10
15578;DHT22;17667;45.598;5.214;2023-05-02T08:46:22;21.40;74.50
15578;DHT22;17667;45.598;5.214;2023-05-02T08:49:10;21.40;78.70
15578;DHT22;17667;45.598;5.214;2023-05-02T08:51:59;21.40;76.50
15578;DHT22;17667;45.598;5.214;2023-05-02T08:54:48;21.50;78.10
15578;DHT22;17667;45.598;5.214;2023-05-02T08:57:37;21.80;76.80
15578;DHT22;17667;45.598;5.214;2023-05-02T09:00:26;22.30;74.00
15578;DHT22;17667;45.598;5.214;2023-05-02T09:03:22;22.50;72.80
15578;DHT22;17667;45.598;5.214;2023-05-02T09:06:15;22.20;72.90
15578;DHT22;17667;45.598;5.214;2023-05-02T09:09:04;21.90;76.90
15578;DHT22;17667;45.598;5.214;2023-05-02T09:11:52;21.60;73.70
15578;DHT22;17667;45.598;5.214;2023-05-02T09:14:42;21.20;77.60
15578;DHT22;17667;45.598;5.214;2023-05-02T09:17:39;20.70;80.00
15578;DHT22;17667;45.598;5.214;2023-05-02T09:20:26;20.50;76.50
15578;DHT22;17667;45.598;5.214;2023-05-02T09:23:14;20.30;73.00
15578;DHT22;17667;45.598;5.214;2023-05-02T09:26:11;20.20;77.10
15578;DHT22;17667;45.598;5.214;2023-05-02T09:29:00;20.10;78.20
15578;DHT22;17667;45.598;5.214;2023-05-02T09:31:48;20.00;79.80
15578;DHT22;17667;45.598;5.214;2023-05-02T09:35:03;20.50;74.70
15578;DHT22;17667;45.598;5.214;2023-05-02T09:37:52;20.80;75.50
15578;DHT22;17667;45.598;5.214;2023-05-02T09:40:52;20.60;74.60
15578;DHT22;17667;45.598;5.214;2023-05-02T09:43:42;20.30;73.60
15578;DHT22;17667;45.598;5.214;2023-05-02T09:46:38;20.30;79.50
15578;DHT22;17667;45.598;5.214;2023-05-02T09:49:40;20.50;78.00
15578;DHT22;17667;45.598;5.214;2023-05-02T09:52:28;20.80;72.50
15578;DHT22;17667;45.598;5.214;2023-05-02T09:55:19;21.50;73.60
15578;DHT22;17667;45.598;5.214;2023-05-02T09:58:19;22.50;69.70
15578;DHT22;17667;45.598;5.214;2023-05-02T10:01:13;23.50;72.00
15578;DHT22;17667;45.598;5.214;2023-05-02T10:04:02;24.00;65.20
15578;DHT22;17667;45.598;5.214;2023-05-02T10:06:51;24.20;68.80
15578;DHT22;17667;45.598;5.214;2023-05-02T10:09:42;24.30;67.40
15578;DHT22;17667;45.598;5.214;2023-05-02T10:12:31;24.20;67.40
15578;DHT22;17667;45.598;5.214;2023-05-02T10:15:21;24.30;68.10
15578;DHT22;17667;45.598;5.214;2023-05-02T10:18:16;24.40;68.40
15578;DHT22;17667;45.598;5.214;2023-05-02T10:21:09;24.40;69.30
15578;DHT22;17667;45.598;5.214;2023-05-02T10:23:57;24.80;65.20
15578;DHT22;17667;45.598;5.214;2023-05-02T10:26:46;25.00;67.70
15578;DHT22;17667;45.598;5.214;2023-05-02T10:29:35;25.10;63.40
15578;DHT22;17667;45.598;5.214;2023-05-02T10:32:23;25.50;60.80
15578;DHT22;17667;45.598;5.214;2023-05-02T10:35:15;25.70;62.80
15578;DHT22;17667;45.598;5.214;2023-05-02T10:38:05;26.30;60.70
15578;DHT22;17667;45.598;5.214;2023-05-02T10:40:57;27.00;65.60
15578;DHT22;17667;45.598;5.214;2023-05-02T10:43:46;27.70;63.70
15578;DHT22;17667;45.598;5.214;2023-05-02T10:46:35;28.10;58.80
15578;DHT22;17667;45.598;5.214;2023-05-02T10:49:23;28.60;54.10
15578;DHT22;17667;45.598;5.214;2023-05-02T10:52:28;29.20;56.60
15578;DHT22;17667;45.598;5.214;2023-05-02T10:55:19;29.90;52.80
15578;DHT22;17667;45.598;5.214;2023-05-02T10:58:24;29.40;50.30
15578;DHT22;17667;45.598;5.214;2023-05-02T11:01:34;29.70;56.20
15578;DHT22;17667;45.598;5.214;2023-05-02T11:04:23;30.30;53.50
15578;DHT22;17667;45.598;5.214;2023-05-02T11:07:17;30.40;48.80
15578;DHT22;17667;45.598;5.214;2023-05-02T11:10:25;30.10;46.40
15578;DHT22;17667;45.598;5.214;2023-05-02T11:13:14;30.50;52.80
15578;DHT22;17667;45.598;5.214;2023-05-02T11:16:01;30.50;46.20
15578;DHT22;17667;45.598;5.214;2023-05-02T11:18:59;30.10;46.00
15578;DHT22;17667;45.598;5.214;2023-05-02T11:21:47;30.00;46.40
15578;DHT22;17667;45.598;5.214;2023-05-02T11:24:38;30.10;49.30
15578;DHT22;17667;45.598;5.214;2023-05-02T11:27:37;30.70;47.70
15578;DHT22;17667;45.598;5.214;2023-05-02T11:30:37;30.90;45.80
15578;DHT22;17667;45.598;5.214;2023-05-02T11:33:27;31.00;47.20
15578;DHT22;17667;45.598;5.214;2023-05-02T11:36:26;31.50;46.90
15578;DHT22;17667;45.598;5.214;2023-05-02T11:39:19;31.80;47.20
15578;DHT22;17667;45.598;5.214;2023-05-02T11:42:07;32.20;46.10
15578;DHT22;17667;45.598;5.214;2023-05-02T11:44:57;32.20;42.20
15578;DHT22;17667;45.598;5.214;2023-05-02T11:47:45;31.90;44.80
15578;DHT22;17667;45.598;5.214;2023-05-02T11:50:39;32.10;44.20
15578;DHT22;17667;45.598;5.214;2023-05-02T11:53:32;32.40;43.80
15578;DHT22;17667;45.598;5.214;2023-05-02T11:56:22;32.60;46.30
15578;DHT22;17667;45.598;5.214;2023-05-02T11:59:11;33.10;46.70
15578;DHT22;17667;45.598;5.214;2023-05-02T12:02:00;33.40;40.80
15578;DHT22;17667;45.598;5.214;2023-05-02T12:04:48;32.70;40.40
15578;DHT22;17667;45.598;5.214;2023-05-02T12:07:36;31.80;40.60
15578;DHT22;17667;45.598;5.214;2023-05-02T12:10:34;31.00;46.70
15578;DHT22;17667;45.598;5.214;2023-05-02T12:13:23;31.00;43.40
15578;DHT22;17667;45.598;5.214;2023-05-02T12:16:11;31.00;44.60
15578;DHT22;17667;45.598;5.214;2023-05-02T12:19:00;30.90;43.80
15578;DHT22;17667;45.598;5.214;2023-05-02T12:21:50;30.60;48.20
15578;DHT22;17667;45.598;5.214;2023-05-02T12:24:38;30.50;52.10
15578;DHT22;17667;45.598;5.214;2023-05-02T12:27:26;30.70;53.50
15578;DHT22;17667;45.598;5.214;2023-05-02T12:30:24;30.50;54.80
15578;DHT22;17667;45.598;5.214;2023-05-02T12:33:12;29.80;53.90
15578;DHT22;17667;45.598;5.214;2023-05-02T12:36:07;29.20;56.10
15578;DHT22;17667;45.598;5.214;2023-05-02T12:38:56;28.70;58.80
15578;DHT22;17667;45.598;5.214;2023-05-02T12:41:44;28.40;56.30
15578;DHT22;17667;45.598;5.214;2023-05-02T12:44:35;28.00;58.10
15578;DHT22;17667;45.598;5.214;2023-05-02T12:47:23;27.70;57.00
15578;DHT22;17667;45.598;5.214;2023-05-02T12:50:11;27.80;57.10
15578;DHT22;17667;45.598;5.214;2023-05-02T12:53:01;28.00;47.40
15578;DHT22;17667;45.598;5.214;2023-05-02T12:55:48;28.10;47.90
15578;DHT22;17667;45.598;5.214;2023-05-02T12:58:47;28.20;48.30
15578;DHT22;17667;45.598;5.214;2023-05-02T13:01:35;28.20;49.40
15578;DHT22;17667;45.598;5.214;2023-05-02T13:04:32;28.00;56.00
15578;DHT22;17667;45.598;5.214;2023-05-02T13:07:20;28.00;48.60
15578;DHT22;17667;45.598;5.214;2023-05-02T13:10:09;28.10;47.90
15578;DHT22;17667;45.598;5.214;2023-05-02T13:12:58;28.00;44.80
15578;DHT22;17667;45.598;5.214;2023-05-02T13:15:47;27.80;49.00
15578;DHT22;17667;45.598;5.214;2023-05-02T13:18:34;27.60;49.50
15578;DHT22;17667;45.598;5.214;2023-05-02T13:21:22;27.30;50.10
15578;DHT22;17667;45.598;5.214;2023-05-02T13:24:09;27.00;51.30
15578;DHT22;17667;45.598;5.214;2023-05-02T13:26:59;26.70;53.20
15578;DHT22;17667;45.598;5.214;2023-05-02T13:29:48;26.60;46.80
15578;DHT22;17667;45.598;5.214;2023-05-02T13:32:36;26.60;51.90
15578;DHT22;17667;45.598;5.214;2023-05-02T13:35:23;26.50;52.90
15578;DHT22;17667;45.598;5.214;2023-05-02T13:38:11;26.30;52.30
15578;DHT22;17667;45.598;5.214;2023-05-02T13:40:59;26.20;51.00
15578;DHT22;17667;45.598;5.214;2023-05-02T13:43:48;26.20;52.20
15578;DHT22;17667;45.598;5.214;2023-05-02T13:46:35;26.20;50.30
15578;DHT22;17667;45.598;5.214;2023-05-02T13:49:23;26.10;48.90
15578;DHT22;17667;45.598;5.214;2023-05-02T13:52:11;26.40;47.70
15578;DHT22;17667;45.598;5.214;2023-05-02T13:54:59;26.30;49.00
15578;DHT22;17667;45.598;5.214;2023-05-02T13:57:46;26.20;49.90
15578;DHT22;17667;45.598;5.214;2023-05-02T14:00:36;25.90;48.30
15578;DHT22;17667;45.598;5.214;2023-05-02T14:03:24;25.80;51.40
15578;DHT22;17667;45.598;5.214;2023-05-02T14:06:12;25.80;48.80
15578;DHT22;17667;45.598;5.214;2023-05-02T14:08:59;25.70;48.20
15578;DHT22;17667;45.598;5.214;2023-05-02T14:11:47;25.50;49.00
15578;DHT22;17667;45.598;5.214;2023-05-02T14:14:35;25.40;50.50
15578;DHT22;17667;45.598;5.214;2023-05-02T14:17:24;25.30;53.80
15578;DHT22;17667;45.598;5.214;2023-05-02T14:20:12;25.20;50.80
15578;DHT22;17667;45.598;5.214;2023-05-02T14:23:00;25.20;47.90
15578;DHT22;17667;45.598;5.214;2023-05-02T14:25:48;25.30;51.40
15578;DHT22;17667;45.598;5.214;2023-05-02T14:28:35;25.20;48.90
15578;DHT22;17667;45.598;5.214;2023-05-02T14:31:23;25.10;49.00
15578;DHT22;17667;45.598;5.214;2023-05-02T14:34:12;25.20;49.70
15578;DHT22;17667;45.598;5.214;2023-05-02T14:37:00;25.10;49.10
15578;DHT22;17667;45.598;5.214;2023-05-02T14:39:47;25.00;51.70
15578;DHT22;17667;45.598;5.214;2023-05-02T14:42:39;24.90;50.90
15578;DHT22;17667;45.598;5.214;2023-05-02T14:45:27;24.90;50.80
15578;DHT22;17667;45.598;5.214;2023-05-02T14:48:15;24.70;48.00
15578;DHT22;17667;45.598;5.214;2023-05-02T14:51:05;24.60;50.50
15578;DHT22;17667;45.598;5.214;2023-05-02T14:53:53;24.50;50.80
15578;DHT22;17667;45.598;5.214;2023-05-02T14:56:40;24.30;49.90
15578;DHT22;17667;45.598;5.214;2023-05-02T14:59:28;24.30;49.60
15578;DHT22;17667;45.598;5.214;2023-05-02T15:02:16;24.30;50.50
15578;DHT22;17667;45.598;5.214;2023-05-02T15:05:05;24.40;49.30
15578;DHT22;17667;45.598;5.214;2023-05-02T15:07:58;24.50;48.90
15578;DHT22;17667;45.598;5.214;2023-05-02T15:10:46;24.50;49.50
15578;DHT22;17667;45.598;5.214;2023-05-02T15:13:34;24.40;49.80
15578;DHT22;17667;45.598;5.214;2023-05-02T15:16:22;24.40;51.20
15578;DHT22;17667;45.598;5.214;2023-05-02T15:19:09;24.30;50.20
15578;DHT22;17667;45.598;5.214;2023-05-02T15:21:57;24.30;47.50
15578;DHT22;17667;45.598;5.214;2023-05-02T15:24:46;24.40;48.10
15578;DHT22;17667;45.598;5.214;2023-05-02T15:27:34;24.50;49.10
15578;DHT22;17667;45.598;5.214;2023-05-02T15:30:21;24.60;47.30
15578;DHT22;17667;45.598;5.214;2023-05-02T15:33:09;24.50;49.50
15578;DHT22;17667;45.598;5.214;2023-05-02T15:35:57;24.40;48.10
15578;DHT22;17667;45.598;5.214;2023-05-02T15:38:45;24.40;50.20
15578;DHT22;17667;45.598;5.214;2023-05-02T15:41:34;24.30;49.10
15578;DHT22;17667;45.598;5.214;2023-05-02T15:44:21;24.30;48.20
15578;DHT22;17667;45.598;5.214;2023-05-02T15:47:09;24.30;49.50
15578;DHT22;17667;45.598;5.214;2023-05-02T15:49:56;24.30;46.40
15578;DHT22;17667;45.598;5.214;2023-05-02T15:52:44;24.40;50.70
15578;DHT22;17667;45.598;5.214;2023-05-02T15:55:32;24.40;47.30
15578;DHT22;17667;45.598;5.214;2023-05-02T15:58:22;24.50;48.00
15578;DHT22;17667;45.598;5.214;2023-05-02T16:01:09;24.40;46.00
15578;DHT22;17667;45.598;5.214;2023-05-02T16:03:57;24.40;46.70
15578;DHT22;17667;45.598;5.214;2023-05-02T16:06:45;24.40;45.80
15578;DHT22;17667;45.598;5.214;2023-05-02T16:09:32;24.50;49.20
15578;DHT22;17667;45.598;5.214;2023-05-02T16:12:20;24.40;48.60
15578;DHT22;17667;45.598;5.214;2023-05-02T16:15:09;24.30;47.00
15578;DHT22;17667;45.598;5.214;2023-05-02T16:17:57;24.30;47.40
15578;DHT22;17667;45.598;5.214;2023-05-02T16:20:45;24.20;49.60
15578;DHT22;17667;45.598;5.214;2023-05-02T16:23:35;24.20;46.60
15578;DHT22;17667;45.598;5.214;2023-05-02T16:26:22;24.20;48.10
15578;DHT22;17667;45.598;5.214;2023-05-02T16:29:10;24.20;49.70
15578;DHT22;17667;45.598;5.214;2023-05-02T16:31:59;24.00;52.50
15578;DHT22;17667;45.598;5.214;2023-05-02T16:34:47;23.90;49.80
15578;DHT22;17667;45.598;5.214;2023-05-02T16:37:34;23.80;49.90
15578;DHT22;17667;45.598;5.214;2023-05-02T16:40:22;23.70;48.90
15578;DHT22;17667;45.598;5.214;2023-05-02T16:43:10;23.60;48.90
15578;DHT22;17667;45.598;5.214;2023-05-02T16:45:59;23.60;49.60
15578;DHT22;17667;45.598;5.214;2023-05-02T16:48:48;23.50;48.60
15578;DHT22;17667;45.598;5.214;2023-05-02T16:51:36;23.50;50.50
15578;DHT22;17667;45.598;5.214;2023-05-02T16:54:23;23.40;47.70
15578;DHT22;17667;45.598;5.214;2023-05-02T16:57:11;23.30;49.90
15578;DHT22;17667;45.598;5.214;2023-05-02T17:00:04;23.30;49.60
15578;DHT22;17667;45.598;5.214;2023-05-02T17:02:53;23.20;49.00
15578;DHT22;17667;45.598;5.214;2023-05-02T17:05:43;23.20;49.40
15578;DHT22;17667;45.598;5.214;2023-05-02T17:08:31;23.20;49.10
15578;DHT22;17667;45.598;5.214;2023-05-02T17:11:19;23.10;49.30
15578;DHT22;17667;45.598;5.214;2023-05-02T17:14:07;23.10;51.30
15578;DHT22;17667;45.598;5.214;2023-05-02T17:16:54;23.10;50.90
15578;DHT22;17667;45.598;5.214;2023-05-02T17:19:42;23.10;49.00
15578;DHT22;17667;45.598;5.214;2023-05-02T17:22:31;23.10;48.90
15578;DHT22;17667;45.598;5.214;2023-05-02T17:25:19;23.00;50.50
15578;DHT22;17667;45.598;5.214;2023-05-02T17:28:07;23.00;49.70
15578;DHT22;17667;45.598;5.214;2023-05-02T17:30:55;22.90;50.40
15578;DHT22;17667;45.598;5.214;2023-05-02T17:33:44;22.90;50.80
15578;DHT22;17667;45.598;5.214;2023-05-02T17:36:32;22.80;49.50
15578;DHT22;17667;45.598;5.214;2023-05-02T17:39:22;22.80;51.40
15578;DHT22;17667;45.598;5.214;2023-05-02T17:42:09;22.70;49.70
15578;DHT22;17667;45.598;5.214;2023-05-02T17:44:57;22.60;51.50
15578;DHT22;17667;45.598;5.214;2023-05-02T17:47:45;22.60;48.10
15578;DHT22;17667;45.598;5.214;2023-05-02T17:50:35;22.50;49.40